Time;durP1;ratioP1;P1;durP2;ratioP2;P2;SDS_P1;SDS_P2;PMS_P1;PMS_P2;Temp;Humidity;BMP_temperature;BMP_pressure;BME280_temperature;BME280_humidity;BME280_pressure;Samples;Min_cycle;Max_cycle;Signal;HPM_P1;HPM_P2
2022/10/26 00:00:25;;;;;;;22.83;12.43;;;9.70;99.90;;;;;;5035549;28;20517;-73
2022/10/26 00:02:53;;;;;;;27.35;13.90;;;9.70;99.90;;;;;;5035653;28;20045;-72
2022/10/26 00:05:20;;;;;;;19.23;12.38;;;9.70;99.90;;;;;;5032235;28;20049;-72
2022/10/26 00:07:46;;;;;;;22.52;14.20;;;9.70;99.90;;;;;;5055210;28;20461;-73
2022/10/26 00:10:12;;;;;;;21.92;12.55;;;9.70;99.90;;;;;;5055412;28;20052;-73
2022/10/26 00:12:37;;;;;;;21.38;13.20;;;9.70;99.90;;;;;;5021173;28;20041;-73
2022/10/26 00:15:03;;;;;;;22.88;12.48;;;9.70;99.90;;;;;;5042721;28;20053;-73
2022/10/26 00:17:29;;;;;;;25.35;12.02;;;9.70;99.90;;;;;;5035335;28;20081;-72
2022/10/26 00:19:54;;;;;;;24.70;13.38;;;9.70;99.90;;;;;;5017733;28;20135;-71
2022/10/26 00:22:20;;;;;;;23.35;14.13;;;9.70;99.90;;;;;;5017830;28;20572;-73
2022/10/26 00:24:45;;;;;;;24.45;13.02;;;9.70;99.90;;;;;;5044350;28;20048;-71
2022/10/26 00:27:11;;;;;;;33.83;14.23;;;9.70;99.90;;;;;;5054421;28;20037;-72
2022/10/26 00:29:36;;;;;;;21.85;12.20;;;9.80;99.90;;;;;;5038225;28;20049;-73
2022/10/26 00:32:02;;;;;;;20.95;13.55;;;9.80;99.90;;;;;;5055121;28;20468;-73
2022/10/26 00:34:28;;;;;;;28.63;12.63;;;9.80;99.90;;;;;;5047767;28;20069;-72
2022/10/26 00:36:53;;;;;;;20.85;12.50;;;9.70;99.90;;;;;;5035022;28;20044;-72
2022/10/26 00:39:19;;;;;;;25.13;12.52;;;9.80;99.90;;;;;;5035366;28;20045;-72
2022/10/26 00:41:44;;;;;;;23.42;13.60;;;9.70;99.90;;;;;;5035715;28;20373;-72
2022/10/26 00:44:44;;;;;;;16.98;11.80;;;9.70;99.90;;;;;;5021399;28;20071;-73
2022/10/26 00:47:13;;;;;;;19.80;11.18;;;9.70;99.90;;;;;;5054652;28;20049;-72
2022/10/26 00:49:38;;;;;;;19.05;11.57;;;9.60;99.90;;;;;;5055501;28;20063;-72
2022/10/26 00:52:05;;;;;;;18.80;12.80;;;9.70;99.90;;;;;;5055082;28;20520;-72
2022/10/26 00:54:31;;;;;;;24.33;12.10;;;9.70;99.90;;;;;;5029911;28;20060;-71
2022/10/26 00:56:57;;;;;;;18.25;12.45;;;9.60;99.90;;;;;;5034753;28;20046;-72
2022/10/26 00:59:23;;;;;;;25.23;13.93;;;9.60;99.90;;;;;;5046499;28;20132;-74
2022/10/26 01:01:50;;;;;;;21.90;12.95;;;9.60;99.90;;;;;;5054684;28;20037;-73
2022/10/26 01:04:17;;;;;;;22.45;11.65;;;9.60;99.90;;;;;;5036325;28;20102;-72
2022/10/26 01:06:44;;;;;;;19.70;11.65;;;9.60;99.90;;;;;;5073814;28;20121;-73
2022/10/26 01:09:11;;;;;;;26.55;12.50;;;9.50;99.90;;;;;;5074526;28;20075;-70
2022/10/26 01:11:37;;;;;;;18.38;11.70;;;9.50;99.90;;;;;;5057668;28;20411;-72
2022/10/26 01:14:06;;;;;;;23.48;12.43;;;9.50;99.90;;;;;;5073229;28;20036;-72
2022/10/26 01:16:50;;;;;;;21.52;12.75;;;9.50;99.90;;;;;;5074608;28;20470;-70
2022/10/26 01:19:22;;;;;;;22.92;13.20;;;9.40;99.90;;;;;;5057937;28;20099;-74
2022/10/26 01:21:53;;;;;;;24.30;13.13;;;9.40;99.90;;;;;;5074115;28;20102;-73
2022/10/26 01:24:46;;;;;;;23.95;13.82;;;9.40;99.90;;;;;;5067681;28;20044;-73
2022/10/26 01:27:24;;;;;;;22.23;12.30;;;9.40;99.90;;;;;;5054374;28;20099;-73
2022/10/26 01:30:26;;;;;;;26.25;12.93;;;9.40;99.90;;;;;;5054715;28;20084;-73
2022/10/26 01:33:21;;;;;;;19.98;12.68;;;9.30;99.90;;;;;;5037616;28;20064;-72
2022/10/26 01:35:53;;;;;;;17.90;11.75;;;9.30;99.90;;;;;;5069248;28;20456;-71
2022/10/26 01:38:49;;;;;;;28.25;13.43;;;9.30;99.90;;;;;;5061003;28;20160;-73
2022/10/26 01:41:21;;;;;;;23.02;12.07;;;9.20;99.90;;;;;;5060714;28;20048;-72
2022/10/26 01:43:54;;;;;;;23.48;12.73;;;9.20;99.90;;;;;;5076281;28;20055;-72
2022/10/26 01:46:22;;;;;;;29.92;14.75;;;9.20;99.90;;;;;;5058218;28;20075;-73
2022/10/26 01:48:52;;;;;;;21.30;14.38;;;9.10;99.90;;;;;;5058327;28;20354;-71
2022/10/26 01:51:19;;;;;;;24.85;14.63;;;9.10;99.90;;;;;;5057937;28;20119;-72
2022/10/26 01:53:46;;;;;;;28.00;15.13;;;9.00;99.90;;;;;;5040298;28;20366;-72
2022/10/26 01:56:24;;;;;;;24.30;14.50;;;9.00;99.90;;;;;;5073122;28;20048;-73
2022/10/26 01:58:56;;;;;;;25.77;15.02;;;9.00;99.90;;;;;;5058715;28;20488;-73
2022/10/26 02:01:46;;;;;;;33.10;16.20;;;8.90;99.90;;;;;;5060088;28;20139;-73
2022/10/26 02:04:34;;;;;;;24.77;15.13;;;8.90;99.90;;;;;;5072317;28;20036;-72
2022/10/26 02:07:22;;;;;;;23.23;13.95;;;8.80;99.90;;;;;;5058016;28;20093;-73
2022/10/26 02:09:51;;;;;;;25.08;14.23;;;8.80;99.90;;;;;;5058027;28;20075;-72
2022/10/26 02:12:40;;;;;;;27.27;15.65;;;8.70;99.90;;;;;;5057435;28;20045;-72
2022/10/26 02:15:15;;;;;;;21.67;15.20;;;8.60;99.90;;;;;;5068819;28;20052;-72
2022/10/26 02:18:04;;;;;;;26.08;16.52;;;8.60;99.90;;;;;;5077634;28;20111;-72
2022/10/26 02:20:34;;;;;;;22.98;15.32;;;8.50;99.90;;;;;;5077626;28;20056;-72
2022/10/26 02:23:04;;;;;;;27.40;15.23;;;8.50;99.90;;;;;;5059933;28;20063;-72
2022/10/26 02:25:38;;;;;;;22.42;14.23;;;8.50;99.90;;;;;;5061686;28;20487;-72
2022/10/26 02:28:07;;;;;;;32.72;15.30;;;8.40;99.90;;;;;;5053384;28;20456;-72
2022/10/26 02:30:34;;;;;;;21.33;14.57;;;8.40;99.90;;;;;;5057330;28;20045;-71
2022/10/26 02:33:03;;;;;;;25.92;16.17;;;8.30;99.90;;;;;;5057042;28;20041;-73
2022/10/26 02:35:32;;;;;;;23.63;15.23;;;8.30;99.90;;;;;;5071228;28;20599;-72
2022/10/26 02:38:01;;;;;;;25.50;13.90;;;8.30;99.90;;;;;;5077681;28;20049;-71
2022/10/26 02:40:28;;;;;;;27.77;15.75;;;8.30;99.90;;;;;;5077040;28;20045;-73
2022/10/26 02:42:58;;;;;;;20.73;13.73;;;8.30;99.90;;;;;;5076985;28;20047;-73
2022/10/26 02:45:30;;;;;;;27.70;14.65;;;8.20;99.90;;;;;;5062202;28;20041;-72
2022/10/26 02:47:56;;;;;;;26.77;15.52;;;8.20;99.90;;;;;;5057302;28;20045;-72
2022/10/26 02:50:29;;;;;;;23.48;16.08;;;8.20;99.90;;;;;;5057308;28;20397;-71
2022/10/26 02:53:23;;;;;;;24.67;14.75;;;8.20;99.90;;;;;;5022696;28;20106;-73
2022/10/26 02:55:50;;;;;;;28.75;16.40;;;8.20;99.90;;;;;;5056125;28;20380;-73
2022/10/26 02:58:22;;;;;;;27.15;16.50;;;8.20;99.90;;;;;;5076207;28;20045;-74
2022/10/26 03:00:49;;;;;;;24.50;15.57;;;8.20;99.90;;;;;;5076633;28;20060;-73
2022/10/26 03:03:16;;;;;;;29.35;18.08;;;8.40;99.90;;;;;;5076488;28;20058;-72
2022/10/26 03:05:42;;;;;;;26.98;16.95;;;8.20;99.90;;;;;;5060312;28;20071;-72
2022/10/26 03:08:08;;;;;;;29.23;17.38;;;8.30;99.90;;;;;;5056481;28;20049;-74
2022/10/26 03:10:40;;;;;;;26.52;17.98;;;8.30;99.90;;;;;;5056347;28;20052;-72
2022/10/26 03:13:05;;;;;;;33.90;18.13;;;8.30;99.90;;;;;;5056068;28;20362;-72
2022/10/26 03:15:31;;;;;;;34.63;20.55;;;8.30;99.90;;;;;;5065013;28;20044;-72
2022/10/26 03:17:56;;;;;;;35.30;19.55;;;8.30;99.90;;;;;;5076398;28;20099;-72
2022/10/26 03:20:23;;;;;;;35.30;18.50;;;8.30;99.90;;;;;;5076399;28;20055;-70
2022/10/26 03:22:48;;;;;;;31.08;17.10;;;8.30;99.90;;;;;;5059043;28;20118;-72
2022/10/26 03:25:16;;;;;;;34.85;21.05;;;8.20;99.90;;;;;;5046883;28;20084;-72
2022/10/26 03:27:43;;;;;;;34.40;20.92;;;8.20;99.90;;;;;;5038933;28;20369;-72
2022/10/26 03:30:09;;;;;;;35.40;20.63;;;8.30;99.90;;;;;;5039056;28;20049;-71
2022/10/26 03:32:35;;;;;;;38.25;20.30;;;8.20;99.90;;;;;;5056052;28;20047;-72
2022/10/26 03:35:00;;;;;;;38.25;22.02;;;8.20;99.90;;;;;;5039744;28;20041;-71
2022/10/26 03:37:26;;;;;;;35.70;22.40;;;8.20;99.90;;;;;;5072716;28;20041;-72
2022/10/26 03:39:52;;;;;;;35.00;23.00;;;8.20;99.90;;;;;;5075805;28;20056;-74
2022/10/26 03:42:17;;;;;;;33.85;19.23;;;8.20;99.90;;;;;;5076363;28;20052;-72
2022/10/26 03:44:43;;;;;;;32.72;21.45;;;8.20;99.90;;;;;;5068516;28;20090;-72
2022/10/26 03:47:08;;;;;;;43.53;23.58;;;8.20;99.90;;;;;;5055908;28;20052;-70
2022/10/26 03:49:34;;;;;;;43.53;26.00;;;8.70;99.90;;;;;;5038322;28;20509;-72
2022/10/26 03:52:00;;;;;;;54.53;26.83;;;8.30;99.90;;;;;;5038214;28;20083;-72
2022/10/26 03:54:26;;;;;;;39.22;23.98;;;8.30;99.90;;;;;;5054954;28;20469;-73
2022/10/26 03:56:51;;;;;;;49.13;26.40;;;8.30;99.90;;;;;;5072907;28;20044;-74
2022/10/26 03:59:18;;;;;;;45.00;26.40;;;8.40;99.90;;;;;;5060320;28;20051;-73
2022/10/26 04:01:53;;;;;;;39.95;25.15;;;8.30;99.90;;;;;;5057416;28;20040;-72
2022/10/26 04:04:18;;;;;;;40.00;26.27;;;8.30;99.90;;;;;;5040951;28;20117;-70
2022/10/26 04:06:44;;;;;;;39.78;26.13;;;8.40;99.90;;;;;;5041441;28;20357;-71
2022/10/26 04:09:09;;;;;;;45.58;28.35;;;8.40;99.90;;;;;;5059541;28;20043;-71
2022/10/26 04:11:35;;;;;;;48.42;28.40;;;8.40;99.90;;;;;;5055176;28;20123;-73
2022/10/26 04:14:00;;;;;;;44.55;29.08;;;8.60;99.90;;;;;;5037615;28;20037;-70
2022/10/26 04:16:26;;;;;;;54.22;29.95;;;8.40;99.90;;;;;;5038127;28;20481;-71
2022/10/26 04:18:52;;;;;;;52.53;28.73;;;8.40;99.90;;;;;;5055450;28;20151;-74
2022/10/26 04:21:17;;;;;;;53.20;29.13;;;8.40;99.90;;;;;;5055225;28;20079;-73
2022/10/26 04:23:43;;;;;;;52.40;26.02;;;8.40;99.90;;;;;;5055375;28;20048;-72
2022/10/26 04:26:08;;;;;;;46.17;26.73;;;8.40;99.90;;;;;;5055134;28;20141;-72
2022/10/26 04:28:34;;;;;;;47.10;28.05;;;8.30;99.90;;;;;;5037960;28;20114;-72
2022/10/26 04:30:59;;;;;;;47.03;27.73;;;8.40;99.90;;;;;;5055145;28;20049;-72
2022/10/26 04:33:25;;;;;;;45.35;27.58;;;8.30;99.90;;;;;;5055266;28;20116;-71
2022/10/26 04:35:50;;;;;;;38.75;26.20;;;8.30;99.90;;;;;;5055038;28;20468;-73
2022/10/26 04:38:16;;;;;;;57.63;30.38;;;8.40;99.90;;;;;;5051699;28;20044;-71
2022/10/26 04:40:41;;;;;;;52.40;29.85;;;8.40;99.90;;;;;;5074776;28;20445;-73
2022/10/26 04:43:07;;;;;;;49.33;28.48;;;8.40;99.90;;;;;;5074850;28;20135;-72
2022/10/26 04:45:33;;;;;;;51.50;29.17;;;8.40;99.90;;;;;;5075040;28;20055;-69
2022/10/26 04:48:00;;;;;;;45.50;28.15;;;8.50;99.90;;;;;;5062738;28;20435;-71
2022/10/26 04:50:26;;;;;;;46.60;28.83;;;8.50;99.90;;;;;;5037355;28;20084;-73
2022/10/26 04:52:52;;;;;;;52.95;29.70;;;8.50;99.90;;;;;;5054729;28;20045;-68
2022/10/26 04:55:17;;;;;;;50.25;30.17;;;8.60;99.90;;;;;;5043719;28;20041;-71
2022/10/26 04:57:43;;;;;;;49.45;29.55;;;8.60;99.90;;;;;;5074793;28;20075;-72
2022/10/26 05:00:10;;;;;;;47.30;30.25;;;8.70;99.90;;;;;;5074645;28;20139;-72
2022/10/26 05:02:36;;;;;;;55.88;28.33;;;8.70;99.90;;;;;;5074809;28;20157;-71
2022/10/26 05:05:01;;;;;;;48.63;27.52;;;8.70;99.90;;;;;;5070410;28;20076;-72
2022/10/26 05:07:27;;;;;;;48.90;30.00;;;8.80;99.90;;;;;;5056419;28;20053;-72
2022/10/26 05:09:52;;;;;;;47.58;29.02;;;8.80;99.90;;;;;;5058524;28;20060;-72
2022/10/26 05:12:18;;;;;;;52.00;30.52;;;8.80;99.90;;;;;;5040900;28;20153;-71
2022/10/26 05:14:44;;;;;;;49.58;29.75;;;8.90;99.90;;;;;;5059642;28;20037;-71
2022/10/26 05:17:09;;;;;;;41.75;27.05;;;9.00;99.90;;;;;;5078735;28;20110;-71
2022/10/26 05:19:35;;;;;;;43.78;27.27;;;9.30;99.90;;;;;;5060849;28;20036;-71
2022/10/26 05:22:00;;;;;;;46.85;28.63;;;9.10;99.90;;;;;;5060870;28;20045;-72
2022/10/26 05:24:26;;;;;;;42.17;25.15;;;9.10;99.90;;;;;;5078214;28;20048;-73
2022/10/26 05:26:51;;;;;;;51.10;27.88;;;9.10;99.90;;;;;;5059410;28;20132;-71
2022/10/26 05:29:17;;;;;;;46.80;27.38;;;9.10;99.90;;;;;;5041151;28;20052;-71
2022/10/26 05:31:42;;;;;;;46.97;27.48;;;9.20;99.90;;;;;;5058447;28;20539;-71
2022/10/26 05:34:08;;;;;;;45.97;26.45;;;9.20;99.90;;;;;;5058473;28;20103;-70
2022/10/26 05:36:33;;;;;;;40.35;26.40;;;9.30;99.90;;;;;;5073983;28;20051;-71
2022/10/26 05:38:59;;;;;;;47.88;27.05;;;9.30;99.90;;;;;;5078511;28;20090;-71
2022/10/26 05:41:26;;;;;;;39.10;25.58;;;9.40;99.90;;;;;;5078459;28;20057;-71
2022/10/26 05:43:51;;;;;;;37.30;24.33;;;9.40;99.90;;;;;;5078218;28;20152;-72
2022/10/26 05:46:17;;;;;;;37.08;24.52;;;9.40;99.90;;;;;;5064471;28;20052;-71
2022/10/26 05:48:42;;;;;;;48.63;25.30;;;9.50;99.90;;;;;;5058265;28;20245;-71
2022/10/26 05:51:09;;;;;;;44.03;26.10;;;9.50;99.90;;;;;;5058148;28;20334;-72
2022/10/26 05:53:35;;;;;;;41.88;26.00;;;9.60;99.90;;;;;;5057747;28;20076;-72
2022/10/26 05:56:00;;;;;;;40.55;24.92;;;9.60;99.90;;;;;;5050456;28;20428;-71
2022/10/26 05:58:26;;;;;;;43.88;25.10;;;9.60;99.90;;;;;;5060289;28;20060;-72
2022/10/26 06:01:24;;;;;;;33.63;23.23;;;9.60;99.90;;;;;;5077942;28;20059;-71
2022/10/26 06:04:08;;;;;;;42.95;25.35;;;9.60;99.90;;;;;;5058341;28;20052;-71
2022/10/26 06:06:46;;;;;;;36.92;23.30;;;9.60;99.90;;;;;;5062958;28;20129;-71
2022/10/26 06:09:13;;;;;;;39.13;24.55;;;9.60;99.90;;;;;;5057757;28;20048;-72
2022/10/26 06:11:39;;;;;;;38.33;24.77;;;9.60;99.90;;;;;;5057873;28;20049;-73
2022/10/26 06:14:06;;;;;;;34.47;24.20;;;9.60;99.90;;;;;;5057660;28;20136;-72
2022/10/26 06:16:34;;;;;;;36.45;23.95;;;9.60;99.90;;;;;;5066166;28;20044;-73
2022/10/26 06:19:14;;;;;;;37.60;23.92;;;9.60;99.90;;;;;;5059093;28;20452;-71
2022/10/26 06:21:42;;;;;;;33.53;22.90;;;9.60;99.90;;;;;;5077425;28;20060;-72
2022/10/26 06:24:34;;;;;;;37.78;21.90;;;9.60;99.90;;;;;;5059771;28;20048;-73
2022/10/26 06:27:24;;;;;;;32.00;21.33;;;9.60;99.90;;;;;;5005991;28;20057;-70
2022/10/26 06:30:05;;;;;;;31.67;21.35;;;9.60;99.90;;;;;;5057041;28;20095;-74
2022/10/26 06:32:32;;;;;;;30.52;21.10;;;9.70;99.90;;;;;;5057307;28;20124;-71
2022/10/26 06:35:32;;;;;;;28.65;20.58;;;9.70;99.90;;;;;;5056701;28;20358;-72
2022/10/26 06:38:02;;;;;;;28.50;20.38;;;9.70;99.90;;;;;;5070613;28;20036;-72
2022/10/26 06:40:31;;;;;;;32.58;21.05;;;9.70;99.90;;;;;;5077414;28;20076;-72
2022/10/26 06:42:57;;;;;;;29.80;20.55;;;9.80;99.90;;;;;;5077306;28;20157;-70
2022/10/26 06:45:23;;;;;;;26.55;18.92;;;9.80;99.90;;;;;;5072962;28;20473;-71
2022/10/26 06:47:59;;;;;;;30.90;19.63;;;9.80;99.90;;;;;;5057094;28;20179;-71
2022/10/26 06:50:30;;;;;;;31.63;20.02;;;9.90;99.90;;;;;;5056780;28;20108;-73
2022/10/26 06:53:02;;;;;;;30.35;19.90;;;9.90;99.90;;;;;;5056924;28;20132;-71
2022/10/26 06:55:36;;;;;;;29.60;19.27;;;10.00;99.90;;;;;;5056853;28;20420;-73
2022/10/26 06:58:02;;;;;;;29.15;20.02;;;9.90;99.90;;;;;;5076514;28;20121;-71
2022/10/26 07:00:28;;;;;;;26.65;17.75;;;10.00;99.90;;;;;;5076920;28;20044;-72
2022/10/26 07:02:54;;;;;;;25.70;17.38;;;10.00;99.90;;;;;;5076896;28;20044;-71
2022/10/26 07:05:19;;;;;;;32.28;17.75;;;10.10;99.90;;;;;;5073299;28;20037;-72
2022/10/26 07:07:46;;;;;;;30.40;17.52;;;10.10;99.90;;;;;;5056686;28;20127;-71
2022/10/26 07:10:13;;;;;;;28.40;17.70;;;10.10;99.90;;;;;;5038930;28;20517;-70
2022/10/26 07:12:39;;;;;;;24.40;16.77;;;10.20;99.90;;;;;;5056500;28;20436;-72
2022/10/26 07:15:07;;;;;;;20.88;15.70;;;10.30;99.90;;;;;;5056103;28;20052;-74
2022/10/26 07:17:44;;;;;;;22.60;15.93;;;10.30;99.90;;;;;;5073294;28;20049;-71
2022/10/26 07:20:14;;;;;;;25.25;15.38;;;10.40;99.90;;;;;;5076444;28;20364;-71
2022/10/26 07:22:41;;;;;;;25.70;15.52;;;10.40;99.90;;;;;;5076238;28;20138;-70
2022/10/26 07:25:07;;;;;;;31.15;14.90;;;10.50;99.90;;;;;;5075521;28;20080;-71
2022/10/26 07:27:33;;;;;;;22.15;14.18;;;10.60;99.90;;;;;;5056483;28;20119;-72
2022/10/26 07:29:59;;;;;;;22.50;14.07;;;10.60;99.90;;;;;;5055343;28;20477;-72
2022/10/26 07:32:24;;;;;;;20.15;13.05;;;10.70;99.90;;;;;;5055533;28;20063;-71
2022/10/26 07:34:50;;;;;;;17.90;12.32;;;10.80;99.90;;;;;;5038578;28;20448;-73
2022/10/26 07:37:16;;;;;;;25.13;12.75;;;10.90;99.90;;;;;;5070816;28;20039;-72
2022/10/26 07:39:41;;;;;;;17.30;12.05;;;10.90;99.90;;;;;;5075751;28;20330;-72
2022/10/26 07:42:08;;;;;;;17.45;11.52;;;11.20;99.90;;;;;;5075385;28;20059;-71
2022/10/26 07:44:34;;;;;;;21.73;12.13;;;11.10;99.90;;;;;;5075666;28;20093;-71
2022/10/26 07:46:59;;;;;;;20.27;12.30;;;11.20;99.90;;;;;;5060069;28;20052;-72
2022/10/26 07:49:25;;;;;;;16.60;9.98;;;11.30;99.90;;;;;;5056337;28;20060;-71
2022/10/26 07:51:51;;;;;;;21.98;10.93;;;11.30;99.90;;;;;;5038161;28;20120;-73
2022/10/26 07:54:16;;;;;;;16.75;9.85;;;11.40;99.90;;;;;;5055457;28;20049;-72
2022/10/26 07:56:42;;;;;;;18.00;9.55;;;11.50;99.90;;;;;;5047537;28;20044;-70
2022/10/26 07:59:10;;;;;;;17.13;9.93;;;11.60;99.90;;;;;;5075274;28;20472;-71
2022/10/26 08:01:35;;;;;;;18.98;9.65;;;11.70;99.90;;;;;;5075503;28;20540;-71
2022/10/26 08:04:01;;;;;;;17.10;8.65;;;11.80;99.90;;;;;;5075482;28;20078;-73
2022/10/26 08:06:26;;;;;;;15.88;8.52;;;11.80;99.90;;;;;;5064800;28;20056;-72
2022/10/26 08:08:52;;;;;;;12.00;7.43;;;11.90;99.90;;;;;;5055483;28;20404;-72
2022/10/26 08:11:18;;;;;;;13.15;7.63;;;12.00;99.90;;;;;;5054697;28;20052;-73
2022/10/26 08:13:43;;;;;;;12.02;7.57;;;12.20;99.90;;;;;;5055581;28;20045;-71
2022/10/26 08:16:09;;;;;;;14.05;7.50;;;12.20;99.90;;;;;;5040190;28;20053;-71
2022/10/26 08:18:35;;;;;;;13.27;6.88;;;12.30;99.90;;;;;;5055674;28;20052;-72
2022/10/26 08:21:03;;;;;;;10.38;6.43;;;12.50;99.90;;;;;;5075902;28;20037;-72
2022/10/26 08:23:28;;;;;;;11.82;6.70;;;12.60;99.90;;;;;;5073477;28;20045;-72
2022/10/26 08:26:01;;;;;;;10.32;6.80;;;12.70;99.90;;;;;;5075023;28;20044;-71
2022/10/26 08:28:28;;;;;;;12.85;6.45;;;12.80;99.90;;;;;;5074874;28;20414;-71
2022/10/26 08:30:54;;;;;;;12.40;5.80;;;12.90;99.90;;;;;;5075313;28;20056;-71
2022/10/26 08:33:20;;;;;;;12.65;6.25;;;12.90;99.90;;;;;;5062119;28;20107;-71
2022/10/26 08:35:45;;;;;;;13.40;6.65;;;13.00;99.90;;;;;;5037364;28;20477;-71
2022/10/26 08:38:11;;;;;;;11.60;5.50;;;13.00;99.90;;;;;;5038223;28;20052;-73
2022/10/26 08:40:40;;;;;;;12.30;5.32;;;13.00;99.90;;;;;;5055181;28;20045;-71
2022/10/26 08:43:16;;;;;;;12.40;5.30;;;12.90;99.90;;;;;;5060157;28;20364;-72
2022/10/26 08:46:14;;;;;;;9.38;4.85;;;13.00;99.90;;;;;;5074888;28;20097;-73
2022/10/26 08:48:44;;;;;;;9.88;4.80;;;12.80;99.90;;;;;;5073459;28;20056;-71
2022/10/26 08:51:24;;;;;;;12.27;5.45;;;12.90;99.90;;;;;;5074725;28;20135;-72
2022/10/26 08:53:57;;;;;;;9.95;5.13;;;12.90;99.90;;;;;;5041043;28;20114;-73
2022/10/26 08:56:26;;;;;;;8.15;4.38;;;12.90;99.90;;;;;;5055480;28;20045;-71
2022/10/26 08:58:57;;;;;;;10.10;4.72;;;13.00;99.90;;;;;;5054699;28;20060;-71
2022/10/26 09:01:22;;;;;;;6.93;4.60;;;12.90;99.90;;;;;;5054368;28;20095;-71
2022/10/26 09:03:48;;;;;;;10.73;5.45;;;13.00;99.90;;;;;;5065810;28;20049;-71
2022/10/26 09:06:32;;;;;;;8.45;4.20;;;13.10;99.90;;;;;;5074588;28;20040;-71
2022/10/26 09:09:18;;;;;;;12.20;4.82;;;13.10;99.90;;;;;;5074936;28;20040;-71
2022/10/26 09:12:02;;;;;;;6.70;4.47;;;13.20;99.90;;;;;;5057288;28;20052;-71
2022/10/26 09:14:49;;;;;;;11.68;4.55;;;13.30;99.90;;;;;;5037918;28;20159;-71
2022/10/26 09:17:17;;;;;;;8.68;4.32;;;13.30;99.90;;;;;;5037023;28;20053;-71
2022/10/26 09:19:46;;;;;;;8.98;4.28;;;13.40;99.90;;;;;;5054670;28;20073;-73
2022/10/26 09:22:31;;;;;;;11.15;4.55;;;13.40;99.90;;;;;;5020827;28;20159;-72
2022/10/26 09:25:05;;;;;;;20.70;5.20;;;13.40;99.90;;;;;;5037529;28;20049;-72
2022/10/26 09:27:39;;;;;;;9.90;4.40;;;13.50;99.90;;;;;;5037249;28;20049;-72
2022/10/26 09:30:14;;;;;;;7.28;4.25;;;13.50;99.90;;;;;;5037134;28;20111;-72
2022/10/26 09:32:47;;;;;;;6.40;4.15;;;13.50;99.90;;;;;;5045548;28;20524;-72
2022/10/26 09:35:28;;;;;;;12.23;4.37;;;13.60;99.90;;;;;;5074444;28;20036;-72
2022/10/26 09:38:01;;;;;;;8.45;4.43;;;13.60;99.90;;;;;;5056765;28;20102;-71
2022/10/26 09:40:36;;;;;;;18.10;4.15;;;13.70;99.90;;;;;;5074556;28;20052;-71
2022/10/26 09:43:23;;;;;;;9.10;4.05;;;13.70;99.90;;;;;;5038268;28;20049;-72
2022/10/26 09:45:52;;;;;;;12.32;4.20;;;13.70;99.90;;;;;;5054489;28;20049;-72
2022/10/26 09:48:30;;;;;;;9.02;4.40;;;13.80;99.90;;;;;;5037084;28;20048;-71
2022/10/26 09:50:58;;;;;;;6.88;4.13;;;13.80;99.90;;;;;;5036724;28;20049;-72
2022/10/26 09:53:24;;;;;;;7.68;3.80;;;13.90;99.90;;;;;;5070570;28;20055;-72
2022/10/26 09:55:58;;;;;;;8.07;3.72;;;14.00;99.90;;;;;;5060402;28;20131;-71
2022/10/26 09:58:29;;;;;;;10.32;4.25;;;14.10;99.90;;;;;;5077758;28;20056;-71
2022/10/26 10:00:55;;;;;;;7.05;3.88;;;14.10;99.90;;;;;;5077544;28;20099;-71
2022/10/26 10:03:31;;;;;;;5.97;3.50;;;14.20;99.90;;;;;;5057634;28;20041;-72
2022/10/26 10:06:19;;;;;;;10.60;3.90;;;14.30;99.90;;;;;;5057564;28;20091;-73
2022/10/26 10:09:18;;;;;;;7.30;3.50;;;14.30;99.90;;;;;;5024141;28;20144;-71
2022/10/26 10:11:56;;;;;;;7.13;3.00;;;14.30;99.90;;;;;;5042175;28;20049;-72
2022/10/26 10:14:27;;;;;;;9.05;3.20;;;14.40;99.90;;;;;;5077820;28;20064;-71
2022/10/26 10:16:58;;;;;;;7.25;3.22;;;14.50;99.90;;;;;;5077674;28;20040;-71
2022/10/26 10:19:30;;;;;;;14.32;3.60;;;14.70;99.90;;;;;;5078139;28;20048;-72
2022/10/26 10:22:07;;;;;;;8.35;2.90;;;14.70;99.90;;;;;;5051668;28;20529;-70
2022/10/26 10:24:35;;;;;;;9.35;3.15;;;14.90;99.90;;;;;;5058019;28;20055;-72
2022/10/26 10:27:01;;;;;;;9.43;3.67;;;15.00;99.90;;;;;;5057172;28;20044;-71
2022/10/26 10:29:29;;;;;;;10.98;2.90;;;15.10;99.90;;;;;;5057069;28;20045;-72
2022/10/26 10:32:00;;;;;;;7.38;2.95;;;15.30;99.90;;;;;;5061175;28;20040;-73
2022/10/26 10:34:28;;;;;;;7.80;3.15;;;15.40;99.90;;;;;;5077761;28;20051;-73
2022/10/26 10:36:54;;;;;;;9.02;2.72;;;15.50;99.90;;;;;;5077386;28;20044;-72
2022/10/26 10:39:37;;;;;;;8.65;3.22;;;15.50;99.90;;;;;;5073463;28;20059;-73
2022/10/26 10:42:06;;;;;;;6.85;3.22;;;15.60;99.90;;;;;;5057101;28;20077;-73
2022/10/26 10:44:33;;;;;;;9.70;3.13;;;15.70;99.90;;;;;;5056494;28;20075;-72
2022/10/26 10:47:03;;;;;;;32.58;3.05;;;15.90;99.90;;;;;;5057112;28;20497;-73
2022/10/26 10:49:29;;;;;;;6.18;3.13;;;16.00;99.90;;;;;;5039212;28;20094;-72
2022/10/26 10:51:56;;;;;;;8.75;3.13;;;16.10;99.90;;;;;;5059386;28;20048;-72
2022/10/26 10:54:27;;;;;;;6.28;2.72;;;16.30;99.90;;;;;;5076805;28;20048;-72
2022/10/26 10:57:16;;;;;;;10.88;3.17;;;16.30;99.90;;;;;;5076781;28;20041;-71
2022/10/26 11:00:04;;;;;;;11.15;2.83;;;16.40;99.90;;;;;;5069839;28;20060;-72
2022/10/26 11:02:55;;;;;;;6.32;3.08;;;16.50;99.90;;;;;;5039005;28;20049;-73
2022/10/26 11:05:55;;;;;;;5.20;2.70;;;16.60;99.90;;;;;;5022361;28;20040;-71
2022/10/26 11:08:49;;;;;;;6.05;2.90;;;16.70;99.90;;;;;;5056698;28;20357;-72
2022/10/26 11:11:20;;;;;;;13.02;3.55;;;16.70;99.90;;;;;;5071302;28;20126;-71
2022/10/26 11:14:02;;;;;;;12.05;3.17;;;16.80;99.90;;;;;;5058884;28;20048;-72
2022/10/26 11:16:50;;;;;;;6.75;2.92;;;16.90;99.90;;;;;;5076487;28;20052;-72
2022/10/26 11:19:29;;;;;;;7.88;2.85;;;17.00;99.90;;;;;;5073609;28;20087;-71
2022/10/26 11:21:56;;;;;;;7.40;2.92;;;17.10;99.90;;;;;;5056349;28;20041;-72
2022/10/26 11:24:48;;;;;;;11.68;3.10;;;17.20;99.90;;;;;;5056257;28;20037;-72
2022/10/26 11:27:24;;;;;;;12.68;3.00;;;17.30;99.90;;;;;;5038242;28;20048;-73
2022/10/26 11:30:12;;;;;;;11.98;3.30;;;17.40;99.90;;;;;;5055480;28;20048;-73
2022/10/26 11:32:46;;;;;;;10.07;2.70;;;17.50;99.90;;;;;;5004658;28;20067;-74
2022/10/26 11:35:33;;;;;;;6.97;2.50;;;17.60;99.90;;;;;;5056228;28;20052;-73
2022/10/26 11:38:23;;;;;;;11.23;3.00;;;17.60;99.90;;;;;;5056188;28;20055;-74
2022/10/26 11:40:57;;;;;;;9.07;2.70;;;17.60;99.90;;;;;;5049758;28;20048;-73
2022/10/26 11:43:41;;;;;;;13.82;2.63;;;17.60;99.90;;;;;;5075973;28;20048;-71
2022/10/26 11:46:27;;;;;;;9.57;3.25;;;17.60;99.90;;;;;;5075327;28;20476;-71
2022/10/26 11:49:05;;;;;;;11.20;3.15;;;17.50;99.90;;;;;;5075775;28;20131;-70
2022/10/26 11:51:47;;;;;;;8.85;2.97;;;17.40;99.90;;;;;;5038148;28;20115;-71
2022/10/26 11:54:22;;;;;;;9.13;3.30;;;17.40;99.90;;;;;;5055517;28;20037;-72
2022/10/26 11:56:51;;;;;;;7.32;2.83;;;17.50;99.90;;;;;;5055921;28;20045;-73
2022/10/26 11:59:26;;;;;;;10.00;3.15;;;17.40;99.90;;;;;;5052392;28;20067;-72
2022/10/26 12:02:14;;;;;;;10.75;2.80;;;17.40;99.90;;;;;;5076200;28;20059;-72
2022/10/26 12:04:43;;;;;;;7.22;3.00;;;17.50;99.90;;;;;;5074963;28;20045;-72
2022/10/26 12:07:23;;;;;;;7.20;2.88;;;17.60;99.90;;;;;;5057781;28;20110;-72
2022/10/26 12:09:50;;;;;;;4.93;2.50;;;17.50;99.90;;;;;;5069502;28;20060;-74
2022/10/26 12:12:37;;;;;;;7.15;3.22;;;17.60;99.90;;;;;;5055282;28;20048;-72
2022/10/26 12:15:40;;;;;;;10.30;2.90;;;17.60;99.90;;;;;;5037571;28;20339;-73
2022/10/26 12:18:13;;;;;;;8.52;3.15;;;17.60;99.90;;;;;;5050806;28;20045;-71
2022/10/26 12:20:45;;;;;;;9.82;3.50;;;17.60;99.90;;;;;;5067121;28;20041;-73
2022/10/26 12:23:11;;;;;;;10.38;2.97;;;17.80;99.90;;;;;;5057937;28;20149;-73
2022/10/26 12:25:37;;;;;;;8.80;2.85;;;17.80;99.90;;;;;;5075461;28;20041;-72
2022/10/26 12:28:04;;;;;;;7.75;3.13;;;17.80;99.90;;;;;;5075048;28;20135;-72
2022/10/26 12:30:33;;;;;;;9.65;2.55;;;17.90;99.90;;;;;;5064133;28;20118;-73
2022/10/26 12:33:29;;;;;;;10.23;2.88;;;18.00;99.90;;;;;;5037767;28;20369;-73
2022/10/26 12:35:54;;;;;;;6.75;2.80;;;18.00;99.90;;;;;;5037624;28;20430;-73
2022/10/26 12:38:20;;;;;;;5.72;2.63;;;18.10;99.90;;;;;;5054956;28;20164;-72
2022/10/26 12:40:46;;;;;;;8.60;3.05;;;18.10;99.90;;;;;;5067375;28;20052;-74
2022/10/26 12:43:15;;;;;;;8.70;2.55;;;18.20;99.90;;;;;;5074750;28;20037;-72
2022/10/26 12:45:42;;;;;;;6.82;2.50;;;18.10;99.90;;;;;;5075709;28;20369;-71
2022/10/26 12:48:37;;;;;;;17.45;3.53;;;18.20;99.90;;;;;;5075197;28;20041;-72
2022/10/26 12:51:19;;;;;;;10.93;3.63;;;18.20;99.90;;;;;;5042497;28;20357;-71
2022/10/26 12:54:03;;;;;;;10.73;3.08;;;18.10;99.90;;;;;;5037667;28;20296;-72
2022/10/26 12:56:46;;;;;;;7.47;2.88;;;18.20;99.90;;;;;;5054829;28;20053;-72
2022/10/26 12:59:24;;;;;;;14.90;3.30;;;18.10;99.90;;;;;;5054769;28;20061;-72